createdAt,value
2019-03-02T00:00:12.721Z,17.47
2019-03-02T00:02:41.277Z,19.30
2019-03-02T00:05:09.835Z,17.33
2019-03-02T00:07:38.378Z,22.93
2019-03-02T00:10:10.112Z,20.73
2019-03-02T00:12:39.482Z,17.73
2019-03-02T00:15:09.651Z,21.70
2019-03-02T00:17:38.283Z,15.37
2019-03-02T00:20:07.607Z,19.30
2019-03-02T00:22:39.403Z,19.53
2019-03-02T00:25:08.031Z,19.10
2019-03-02T00:27:36.657Z,16.63
2019-03-02T00:30:13.992Z,19.73
2019-03-02T00:32:45.081Z,19.20
2019-03-02T00:35:12.955Z,20.20
2019-03-02T00:37:41.518Z,18.20
2019-03-02T00:40:11.248Z,19.87
2019-03-02T00:42:48.824Z,17.40
2019-03-02T00:45:16.266Z,21.23
2019-03-02T00:47:44.821Z,19.90
2019-03-02T00:50:13.690Z,20.33
2019-03-02T00:52:43.026Z,17.37
2019-03-02T00:55:11.694Z,15.87
2019-03-02T00:57:40.316Z,15.17
2019-03-02T01:00:16.224Z,17.53
2019-03-02T01:02:44.947Z,15.50
2019-03-02T01:05:15.376Z,13.90
2019-03-02T01:07:43.993Z,16.30
2019-03-02T01:10:14.660Z,15.00
2019-03-02T01:12:43.843Z,15.20
2019-03-02T01:15:15.319Z,16.13
2019-03-02T01:17:44.036Z,15.70
2019-03-02T01:20:14.909Z,18.20
2019-03-02T01:22:43.543Z,18.37
2019-03-02T01:25:14.584Z,22.40
2019-03-02T01:27:43.250Z,26.47
2019-03-02T01:30:14.494Z,30.83
2019-03-02T01:32:43.164Z,23.07
2019-03-02T01:35:11.856Z,23.40
2019-03-02T01:37:43.911Z,22.90
2019-03-02T01:40:13.568Z,24.27
2019-03-02T01:42:42.357Z,24.90
2019-03-02T01:45:15.125Z,30.13
2019-03-02T01:47:43.771Z,24.97
2019-03-02T01:50:17.286Z,32.70
2019-03-02T01:52:46.013Z,29.70
2019-03-02T01:55:16.637Z,22.10
2019-03-02T01:57:45.392Z,24.70
2019-03-02T02:00:22.283Z,22.60
2019-03-02T02:02:50.830Z,26.50
2019-03-02T02:05:19.508Z,25.77
2019-03-02T02:07:53.688Z,29.53
2019-03-02T02:10:18.450Z,31.80
2019-03-02T02:12:47.085Z,29.37
2019-03-02T02:15:28.947Z,26.33
2019-03-02T02:17:56.156Z,29.77
2019-03-02T02:20:24.773Z,29.20
2019-03-02T02:22:53.448Z,30.97
2019-03-02T02:25:22.472Z,42.70
2019-03-02T02:27:51.141Z,39.27
2019-03-02T02:30:27.045Z,39.00
2019-03-02T02:33:03.240Z,37.70
2019-03-02T02:35:27.272Z,38.47
2019-03-02T02:37:55.947Z,43.20
2019-03-02T02:40:24.631Z,41.27
2019-03-02T02:42:53.284Z,35.47
2019-03-02T02:45:22.706Z,29.53
2019-03-02T02:47:53.886Z,25.07
2019-03-02T02:50:29.468Z,23.57
2019-03-02T02:52:52.711Z,19.97
2019-03-02T02:55:21.342Z,18.27
2019-03-02T02:57:50.007Z,19.83
2019-03-02T03:00:26.186Z,15.47
2019-03-02T03:02:54.797Z,15.63
2019-03-02T03:05:23.412Z,17.10
2019-03-02T03:07:54.029Z,18.07
2019-03-02T03:10:27.747Z,15.33
2019-03-02T03:12:56.725Z,15.57
2019-03-02T03:15:36.421Z,11.80
2019-03-02T03:17:58.172Z,17.97
2019-03-02T03:20:26.728Z,18.67
2019-03-02T03:22:55.345Z,15.13
2019-03-02T03:25:24.026Z,13.90
2019-03-02T03:27:53.579Z,15.27
2019-03-02T03:30:33.704Z,15.23
2019-03-02T03:32:56.096Z,16.03
2019-03-02T03:35:23.260Z,14.83
2019-03-02T03:37:52.601Z,17.37
2019-03-02T03:40:25.495Z,16.57
2019-03-02T03:42:51.737Z,20.90
2019-03-02T03:45:20.442Z,21.53
2019-03-02T03:47:49.085Z,18.63
2019-03-02T03:50:17.731Z,17.17
2019-03-02T03:52:48.902Z,17.67
2019-03-02T03:55:24.160Z,18.13
2019-03-02T03:57:47.100Z,20.57
2019-03-02T04:00:16.976Z,16.33
2019-03-02T04:02:45.625Z,16.83
2019-03-02T04:05:14.238Z,15.97
2019-03-02T04:07:48.996Z,13.17
2019-03-02T04:10:15.135Z,20.23
2019-03-02T04:12:43.766Z,16.80
2019-03-02T04:15:12.965Z,16.00
2019-03-02T04:17:41.589Z,18.33
2019-03-02T04:20:13.756Z,18.27
2019-03-02T04:22:44.625Z,20.03
2019-03-02T04:25:17.961Z,15.70
2019-03-02T04:27:43.143Z,17.07
2019-03-02T04:30:12.060Z,14.90
2019-03-02T04:32:40.663Z,16.70
2019-03-02T04:35:10.963Z,18.77
2019-03-02T04:37:39.629Z,21.17
2019-03-02T04:40:09.899Z,23.00
2019-03-02T04:42:38.532Z,22.67
2019-03-02T04:45:10.008Z,20.53
2019-03-02T04:47:38.626Z,17.90
2019-03-02T04:50:08.605Z,18.33
2019-03-02T04:52:37.228Z,18.43
2019-03-02T04:55:09.375Z,21.70
2019-03-02T04:57:38.886Z,18.30
2019-03-02T05:00:10.547Z,19.93
2019-03-02T05:02:39.177Z,20.17
2019-03-02T05:05:08.282Z,18.90
2019-03-02T05:07:38.152Z,20.53
2019-03-02T05:10:09.472Z,20.30
2019-03-02T05:12:38.077Z,21.93
2019-03-02T05:15:11.800Z,21.10
2019-03-02T05:17:42.794Z,16.20
2019-03-02T05:20:11.087Z,15.67
2019-03-02T05:22:39.711Z,18.67
2019-03-02T05:25:09.805Z,18.40
2019-03-02T05:27:38.457Z,19.33
2019-03-02T05:30:12.552Z,21.63
2019-03-02T05:32:41.177Z,23.30
2019-03-02T05:35:11.853Z,24.13
2019-03-02T05:37:40.701Z,21.83
2019-03-02T05:40:13.681Z,21.00
2019-03-02T05:42:48.671Z,34.60
2019-03-02T05:45:16.721Z,24.77
2019-03-02T05:47:45.353Z,20.70
2019-03-02T05:50:15.128Z,24.93
2019-03-02T05:52:43.956Z,28.57
2019-03-02T05:55:14.374Z,31.63
2019-03-02T05:57:43.306Z,28.10
2019-03-02T06:00:14.502Z,25.13
2019-03-02T06:02:45.620Z,24.17
2019-03-02T06:05:14.249Z,21.27
2019-03-02T06:07:42.807Z,23.03
2019-03-02T06:10:13.841Z,24.90
2019-03-02T06:12:42.638Z,24.17
2019-03-02T06:15:13.560Z,25.17
2019-03-02T06:17:42.238Z,23.20
2019-03-02T06:20:12.168Z,25.83
2019-03-02T06:22:40.776Z,27.37
2019-03-02T06:25:20.239Z,25.83
2019-03-02T06:27:47.194Z,26.80
2019-03-02T06:30:16.895Z,34.83
2019-03-02T06:32:47.043Z,21.30
2019-03-02T06:35:15.600Z,23.17
2019-03-02T06:37:44.405Z,24.53
2019-03-02T06:40:16.064Z,29.80
2019-03-02T06:42:45.879Z,25.67
2019-03-02T06:45:16.976Z,25.80
2019-03-02T06:47:50.426Z,26.53
2019-03-02T06:50:19.661Z,27.20
2019-03-02T06:52:50.420Z,21.13
2019-03-02T06:55:20.954Z,25.47
2019-03-02T06:57:53.188Z,17.67
2019-03-02T07:00:23.258Z,17.67
2019-03-02T07:02:52.132Z,19.63
2019-03-02T07:05:21.079Z,21.77
2019-03-02T07:07:53.641Z,23.73
2019-03-02T07:10:23.523Z,26.10
2019-03-02T07:12:54.196Z,23.23
2019-03-02T07:15:24.702Z,28.20
2019-03-02T07:18:01.990Z,34.27
2019-03-02T07:20:34.028Z,40.73
2019-03-02T07:23:06.391Z,43.57
2019-03-02T07:25:37.047Z,67.23
2019-03-02T07:28:07.255Z,88.53
2019-03-02T07:30:36.282Z,63.67
2019-03-02T07:33:05.027Z,50.20
2019-03-02T07:35:33.791Z,52.63
2019-03-02T07:38:02.360Z,28.37
2019-03-02T07:40:31.180Z,23.80
2019-03-02T07:43:00.767Z,25.03
2019-03-02T07:45:31.385Z,23.50
2019-03-02T07:48:01.432Z,26.17
2019-03-02T07:50:30.222Z,21.70
2019-03-02T07:52:59.051Z,22.30
2019-03-02T07:55:27.603Z,22.27
2019-03-02T07:57:59.046Z,22.77
2019-03-02T08:00:27.683Z,23.83
2019-03-02T08:02:56.349Z,29.17
2019-03-02T08:05:24.851Z,25.77
2019-03-02T08:07:53.518Z,22.10
2019-03-02T08:10:22.112Z,21.57
2019-03-02T08:12:50.745Z,20.00
2019-03-02T08:15:27.974Z,20.50
2019-03-02T08:17:56.598Z,19.33
2019-03-02T08:20:26.220Z,18.77
2019-03-02T08:22:55.032Z,24.50
2019-03-02T08:25:23.838Z,23.13
2019-03-02T08:27:52.635Z,26.10
2019-03-02T08:30:22.833Z,20.13
2019-03-02T08:32:53.992Z,16.20
2019-03-02T08:35:22.145Z,27.53
2019-03-02T08:37:50.889Z,20.33
2019-03-02T08:40:23.322Z,14.37
2019-03-02T08:42:50.649Z,14.33
2019-03-02T08:45:22.310Z,35.40
2019-03-02T08:47:51.549Z,13.80
2019-03-02T08:50:20.999Z,12.83
2019-03-02T08:52:49.810Z,12.37
2019-03-02T08:55:22.686Z,17.17
2019-03-02T08:57:53.800Z,14.17
2019-03-02T09:00:23.703Z,13.03
2019-03-02T09:02:55.242Z,10.83
2019-03-02T09:05:26.041Z,14.53
2019-03-02T09:07:53.310Z,13.80
2019-03-02T09:10:22.014Z,10.07
2019-03-02T09:12:50.798Z,10.77
2019-03-02T09:15:30.121Z,11.70
2019-03-02T09:17:58.280Z,10.27
2019-03-02T09:20:27.187Z,16.70
2019-03-02T09:23:00.691Z,17.90
2019-03-02T09:25:27.812Z,12.77
2019-03-02T09:27:56.850Z,18.03
2019-03-02T09:30:25.487Z,13.30
2019-03-02T09:32:55.775Z,10.73
2019-03-02T09:35:24.430Z,14.27
2019-03-02T09:37:53.087Z,10.80
2019-03-02T09:40:24.429Z,14.67
2019-03-02T09:42:53.298Z,10.43
2019-03-02T09:45:22.013Z,39.53
2019-03-02T09:47:52.201Z,10.17
2019-03-02T09:50:24.461Z,13.07
2019-03-02T09:52:53.138Z,12.23
2019-03-02T09:55:21.954Z,20.97
2019-03-02T09:57:50.604Z,14.33
2019-03-02T10:00:30.304Z,13.03
2019-03-02T10:02:59.023Z,11.60
2019-03-02T10:05:27.692Z,19.73
2019-03-02T10:07:56.425Z,9.68
2019-03-02T10:10:28.845Z,12.58
2019-03-02T10:12:55.464Z,12.15
2019-03-02T10:15:28.500Z,7.35
2019-03-02T10:17:57.121Z,6.47
2019-03-02T10:20:26.186Z,10.13
2019-03-02T10:22:54.806Z,6.30
2019-03-02T10:25:26.439Z,11.93
2019-03-02T10:27:57.099Z,6.13
2019-03-02T10:30:27.664Z,11.18
2019-03-02T10:32:57.221Z,5.90
2019-03-02T10:35:26.197Z,5.87
2019-03-02T10:37:54.807Z,7.70
2019-03-02T10:40:23.643Z,19.33
2019-03-02T10:42:54.909Z,9.90
2019-03-02T10:45:23.670Z,6.57
2019-03-02T10:47:54.048Z,15.70
2019-03-02T10:50:25.128Z,12.37
2019-03-02T10:52:55.404Z,14.53
2019-03-02T10:55:27.570Z,6.10
2019-03-02T10:57:59.219Z,4.53
2019-03-02T11:00:30.854Z,10.83
2019-03-02T11:03:11.203Z,9.03
2019-03-02T11:05:44.470Z,5.70
2019-03-02T11:08:17.815Z,11.43
2019-03-02T11:11:04.482Z,33.47
2019-03-02T11:13:40.510Z,21.60
2019-03-02T11:16:10.758Z,8.07
2019-03-02T11:18:44.039Z,6.80
2019-03-02T11:21:23.373Z,5.57
2019-03-02T11:24:09.458Z,4.03
2019-03-02T11:26:39.768Z,5.77
2019-03-02T11:29:22.139Z,10.47
2019-03-02T11:31:55.439Z,6.40
2019-03-02T11:34:30.472Z,5.20
2019-03-02T11:37:03.363Z,6.43
2019-03-02T11:39:36.552Z,4.27
2019-03-02T11:42:10.355Z,4.40
2019-03-02T11:44:45.499Z,9.80
2019-03-02T11:47:18.530Z,6.30
2019-03-02T11:50:03.801Z,10.87
2019-03-02T11:52:39.663Z,6.13
2019-03-02T11:55:22.496Z,9.33
2019-03-02T11:58:08.879Z,11.47
2019-03-02T12:00:39.133Z,7.10
2019-03-02T12:03:18.094Z,13.13
2019-03-02T12:06:05.740Z,16.97
2019-03-02T12:08:41.899Z,6.30
2019-03-02T12:11:27.302Z,14.57
2019-03-02T12:13:57.601Z,7.83
2019-03-02T12:16:30.668Z,6.27
2019-03-02T12:19:05.217Z,10.97
2019-03-02T12:21:35.702Z,6.17
2019-03-02T12:24:14.989Z,4.30
2019-03-02T12:26:46.362Z,14.67
2019-03-02T12:29:33.141Z,10.73
2019-03-02T12:32:03.862Z,15.80
2019-03-02T12:34:50.747Z,5.13
2019-03-02T12:37:24.004Z,12.90
2019-03-02T12:40:10.702Z,13.27
2019-03-02T12:42:40.953Z,7.90
2019-03-02T12:45:14.253Z,12.87
2019-03-02T12:47:53.773Z,5.63
2019-03-02T12:50:34.352Z,4.53
2019-03-02T12:53:19.962Z,4.93
2019-03-02T12:55:53.207Z,4.03
2019-03-02T12:58:25.196Z,4.87
2019-03-02T13:01:04.308Z,3.20
2019-03-02T13:03:40.122Z,6.67
2019-03-02T13:06:13.414Z,8.23
2019-03-02T13:08:59.032Z,9.30
2019-03-02T13:11:42.515Z,11.97
2019-03-02T13:14:32.117Z,10.87
2019-03-02T13:17:12.719Z,12.77
2019-03-02T13:19:51.991Z,8.57
2019-03-02T13:22:29.610Z,5.63
2019-03-02T13:25:16.388Z,15.60
2019-03-02T13:28:04.982Z,2.20
2019-03-02T13:30:43.702Z,3.67
2019-03-02T13:33:19.693Z,6.40
2019-03-02T13:36:08.102Z,5.40
2019-03-02T13:38:38.663Z,4.73
2019-03-02T13:41:11.954Z,4.70
2019-03-02T13:44:02.079Z,1.60
2019-03-02T13:46:49.164Z,3.23
2019-03-02T13:49:37.262Z,4.67
2019-03-02T13:52:07.407Z,6.30
2019-03-02T13:54:38.520Z,3.10
2019-03-02T13:57:14.595Z,3.47
2019-03-02T13:59:50.690Z,3.60
2019-03-02T14:02:35.132Z,8.13
2019-03-02T14:05:25.310Z,5.37
2019-03-02T14:07:55.602Z,13.40
2019-03-02T14:10:25.867Z,3.80
2019-03-02T14:13:12.302Z,13.93
2019-03-02T14:15:42.636Z,5.37
2019-03-02T14:18:16.019Z,1.93
2019-03-02T14:21:02.656Z,2.90
2019-03-02T14:23:42.051Z,3.57
2019-03-02T14:26:15.290Z,3.03
2019-03-02T14:28:48.503Z,3.80
2019-03-02T14:31:37.930Z,5.20
2019-03-02T14:34:21.745Z,4.43
2019-03-02T14:36:51.987Z,11.70
2019-03-02T14:39:22.297Z,2.30
2019-03-02T14:42:11.057Z,2.70
2019-03-02T14:44:56.719Z,4.10
2019-03-02T14:47:32.995Z,9.53
2019-03-02T14:50:08.176Z,8.30
2019-03-02T14:52:47.328Z,20.93
2019-03-02T14:55:35.970Z,10.60
2019-03-02T14:58:07.832Z,10.53
2019-03-02T15:00:38.185Z,9.17
2019-03-02T15:03:11.394Z,6.27
2019-03-02T15:05:53.250Z,6.93
2019-03-02T15:08:31.522Z,7.87
2019-03-02T15:11:15.249Z,7.73
2019-03-02T15:13:45.455Z,5.70
2019-03-02T15:16:24.643Z,9.57
2019-03-02T15:18:57.647Z,14.80
2019-03-02T15:21:36.467Z,22.97
2019-03-02T15:24:20.486Z,23.80
2019-03-02T15:26:53.724Z,21.20
2019-03-02T15:29:26.660Z,21.70
2019-03-02T15:31:56.868Z,26.37
2019-03-02T15:34:27.054Z,34.80
2019-03-02T15:36:57.262Z,36.00
2019-03-02T15:39:30.592Z,42.23
2019-03-02T15:42:06.712Z,57.80
2019-03-02T15:44:46.614Z,39.90
2019-03-02T15:47:23.662Z,12.80
2019-03-02T15:50:13.388Z,30.40
2019-03-02T15:52:45.054Z,47.07
2019-03-02T15:55:21.540Z,32.27
2019-03-02T15:57:53.641Z,74.10
2019-03-02T16:00:24.337Z,87.83
2019-03-02T16:02:54.707Z,47.23
2019-03-02T16:05:25.142Z,36.30
2019-03-02T16:08:01.168Z,49.03
2019-03-02T16:10:47.556Z,45.60
2019-03-02T16:13:32.738Z,24.73
2019-03-02T16:16:08.458Z,57.50
2019-03-02T16:18:38.713Z,40.70
2019-03-02T16:21:31.342Z,45.17
2019-03-02T16:24:10.568Z,43.77
2019-03-02T16:26:49.120Z,69.43
2019-03-02T16:29:24.298Z,66.03
2019-03-02T16:32:03.410Z,19.53
2019-03-02T16:34:44.037Z,14.10
2019-03-02T16:37:18.423Z,23.17
2019-03-02T16:39:48.725Z,24.63
2019-03-02T16:42:19.042Z,34.67
2019-03-02T16:45:00.908Z,26.77
2019-03-02T16:47:31.235Z,15.17
2019-03-02T16:50:07.399Z,13.00
2019-03-02T16:52:49.621Z,30.73
2019-03-02T16:55:36.229Z,60.07
2019-03-02T16:58:06.747Z,32.43
2019-03-02T17:00:53.206Z,47.63
2019-03-02T17:03:29.608Z,51.17
2019-03-02T17:05:59.885Z,25.30
2019-03-02T17:08:39.103Z,22.97
2019-03-02T17:11:24.656Z,16.63
2019-03-02T17:13:57.632Z,16.10
2019-03-02T17:16:43.809Z,15.43
2019-03-02T17:19:31.737Z,19.40
2019-03-02T17:22:05.125Z,16.53
2019-03-02T17:24:53.531Z,20.37
2019-03-02T17:27:38.617Z,21.03
2019-03-02T17:30:14.867Z,20.00
2019-03-02T17:32:45.178Z,20.13
2019-03-02T17:38:27.432Z,29.30
2019-03-02T17:41:15.010Z,21.93
2019-03-02T17:43:46.762Z,20.47
2019-03-02T17:46:35.506Z,22.30
2019-03-02T17:49:07.625Z,315.13
2019-03-02T17:51:37.858Z,44.53
2019-03-02T17:54:08.151Z,52.23
2019-03-02T17:56:54.873Z,39.93
2019-03-02T17:59:43.218Z,44.40
2019-03-02T18:02:30.691Z,36.80
2019-03-02T18:05:11.653Z,41.90
2019-03-02T18:07:43.248Z,44.47
2019-03-02T18:10:16.309Z,41.83
2019-03-02T18:12:55.775Z,47.10
2019-03-02T18:15:26.758Z,50.60
2019-03-02T18:18:04.250Z,50.40
2019-03-02T18:20:32.887Z,45.57
2019-03-02T18:23:01.558Z,46.43
2019-03-02T18:25:30.230Z,40.20
2019-03-02T18:27:59.420Z,45.70
2019-03-02T18:30:28.307Z,43.00
2019-03-02T18:32:58.618Z,50.47
2019-03-02T18:35:27.247Z,53.07
2019-03-02T18:37:55.893Z,44.53
2019-03-02T18:40:24.513Z,46.10
2019-03-02T18:42:53.152Z,51.27
2019-03-02T18:45:21.826Z,41.70
2019-03-02T18:47:50.459Z,43.77
2019-03-02T18:50:20.846Z,50.40
2019-03-02T18:52:56.944Z,49.10
2019-03-02T18:55:25.753Z,49.80
2019-03-02T18:57:55.580Z,43.00
2019-03-02T19:00:25.859Z,52.70
2019-03-02T19:02:54.539Z,47.43
2019-03-02T19:05:28.934Z,47.80
2019-03-02T19:07:58.309Z,47.53
2019-03-02T19:10:26.868Z,49.23
2019-03-02T19:12:55.545Z,50.60
2019-03-02T19:15:24.973Z,49.03
2019-03-02T19:17:53.715Z,44.70
2019-03-02T19:20:22.443Z,50.63
2019-03-02T19:22:51.118Z,42.50
2019-03-02T19:25:19.747Z,44.97
2019-03-02T19:27:48.383Z,42.57
2019-03-02T19:30:21.583Z,43.03
2019-03-02T19:32:50.260Z,44.53
2019-03-02T19:35:18.903Z,35.87
2019-03-02T19:37:47.545Z,46.50
2019-03-02T19:40:22.867Z,50.07
2019-03-02T19:42:51.614Z,40.30
2019-03-02T19:45:20.282Z,48.17
2019-03-02T19:47:52.103Z,46.97
2019-03-02T19:50:21.841Z,62.03
2019-03-02T19:52:53.544Z,53.93
2019-03-02T19:55:22.228Z,44.63
2019-03-02T19:57:50.820Z,59.93
2019-03-02T20:00:25.237Z,53.37
2019-03-02T20:02:53.914Z,46.83
2019-03-02T20:05:22.549Z,52.43
2019-03-02T20:07:51.231Z,48.93
2019-03-02T20:10:23.158Z,52.83
2019-03-02T20:12:51.839Z,50.07
2019-03-02T20:15:30.068Z,55.17
2019-03-02T20:17:58.749Z,51.97
2019-03-02T20:20:27.307Z,55.03
2019-03-02T20:22:55.994Z,50.63
2019-03-02T20:25:30.561Z,55.00
2019-03-02T20:27:59.192Z,48.90
2019-03-02T20:30:27.870Z,53.10
2019-03-02T20:32:59.623Z,50.23
2019-03-02T20:35:30.730Z,54.57
2019-03-02T20:37:59.367Z,57.70
2019-03-02T20:40:30.951Z,63.20
2019-03-02T20:43:11.173Z,61.53
2019-03-02T20:45:39.852Z,62.43
2019-03-02T20:48:08.485Z,65.53
2019-03-02T20:50:37.157Z,62.43
2019-03-02T20:53:08.808Z,64.80
2019-03-02T20:55:37.486Z,59.63
2019-03-02T20:58:06.129Z,61.80
2019-03-02T21:00:40.084Z,64.47
2019-03-02T21:03:08.721Z,61.07
2019-03-02T21:05:37.474Z,66.93
2019-03-02T21:08:06.898Z,56.50
2019-03-02T21:10:36.273Z,67.10
2019-03-02T21:13:05.015Z,58.90
2019-03-02T21:15:39.171Z,57.43
2019-03-02T21:18:10.539Z,52.77
2019-03-02T21:20:39.778Z,64.50
2019-03-02T21:23:08.390Z,50.13
2019-03-02T21:25:37.057Z,57.30
2019-03-02T21:28:05.676Z,57.47
2019-03-02T21:30:34.283Z,54.03
2019-03-02T21:33:02.953Z,50.97
2019-03-02T21:35:31.624Z,45.70
2019-03-02T21:38:00.180Z,53.33
2019-03-02T21:40:31.499Z,58.03
2019-03-02T21:42:59.997Z,48.83
2019-03-02T21:45:29.229Z,54.00
2019-03-02T21:47:57.891Z,53.10
2019-03-02T21:50:44.502Z,59.13
2019-03-02T21:53:13.137Z,57.83
2019-03-02T21:55:41.819Z,54.90
2019-03-02T21:58:10.431Z,49.67
2019-03-02T22:00:39.174Z,61.87
2019-03-02T22:03:07.801Z,53.37
2019-03-02T22:05:36.471Z,53.27
2019-03-02T22:08:05.200Z,58.63
2019-03-02T22:10:49.566Z,54.00
2019-03-02T22:13:18.119Z,52.70
2019-03-02T22:15:46.741Z,54.07
2019-03-02T22:18:15.370Z,54.93
2019-03-02T22:20:44.104Z,44.50
2019-03-02T22:23:12.632Z,49.00
2019-03-02T22:25:41.193Z,47.83
2019-03-02T22:28:09.792Z,48.00
2019-03-02T22:30:38.441Z,48.23
2019-03-02T22:33:07.042Z,57.67
2019-03-02T22:35:35.713Z,52.40
2019-03-02T22:38:04.339Z,53.83
2019-03-02T22:40:34.018Z,49.17
2019-03-02T22:43:02.562Z,53.37
2019-03-02T22:45:31.242Z,47.20
2019-03-02T22:47:59.867Z,49.90
2019-03-02T22:50:32.735Z,50.10
2019-03-02T22:53:01.292Z,49.23
2019-03-02T22:55:29.903Z,46.13
2019-03-02T22:57:58.606Z,49.23
2019-03-02T23:00:30.517Z,47.17
2019-03-02T23:02:57.924Z,39.57
2019-03-02T23:05:26.603Z,47.77
2019-03-02T23:07:55.087Z,47.20
2019-03-02T23:10:23.686Z,43.27
2019-03-02T23:12:52.321Z,48.80
2019-03-02T23:15:25.734Z,47.17
2019-03-02T23:17:54.355Z,46.00
2019-03-02T23:20:22.988Z,50.30
2019-03-02T23:22:51.668Z,46.43
2019-03-02T23:25:20.234Z,44.83
2019-03-02T23:27:48.771Z,42.87
2019-03-02T23:30:27.703Z,49.20
2019-03-02T23:32:56.378Z,45.67
2019-03-02T23:35:24.938Z,54.23
2019-03-02T23:37:53.547Z,42.17
2019-03-02T23:40:23.912Z,45.97
2019-03-02T23:42:52.589Z,47.97
2019-03-02T23:45:21.310Z,50.13
2019-03-02T23:47:49.913Z,44.03
2019-03-02T23:50:18.541Z,50.07
2019-03-02T23:52:47.167Z,51.67
2019-03-02T23:55:16.338Z,48.53
2019-03-02T23:57:44.963Z,48.93
